Hauptseite
METAR-TAF:

METAR-TAF

Flughäfen :

Fliegerhorst Lechfeld

Lechfeld, Deutschland

Breite: 48-11N, Länge: 010-52E, Höhe: 555 m

Beobachtung

Neuester Wetterbericht von vor 41 Minuten, um 14:20 UTC
Wind 7 kt aus West
Temperatur 6°C
Luftfeuchtigkeit 45%
Luftdruck 1027 hPa
Sichtweite 10 km oder mehr
Leicht bewölkt in der Höhe von 4000 ft
Durchbrochene Bewölkung in der Höhe von 5000 ft

METAR: ETSL 261420Z 26007KT 9999 FEW040 BKN050 06/M05 Q1027 BLU BLU

Zeit: 16:01 (15:01 UTC)

Prognose

Neuester Wetterbericht von vor 41 Minuten, um 14:20 UTC
Gültige Prognose vom 26 um 15 UTC bis 26 um 24 UTC
Wind 5 kt aus West/Südwest
Sichtweite 10 km oder mehr
Durchbrochene Bewölkung in der Höhe von 3000 ft

TAF: ETSL 261420Z 2615/2624 24005KT 9999 NSW BKN030 BY ETGL

Wetterbeobachtungen und Prognosen von mehr als 4000 Flughäfen (METAR und TAF Bericht).

Die verfügbaren Stationen werden durch gelbe und rote Markierungen auf der Karte dargestellt.

Führen Sie die Maus auf sie, um den Namen der Station zu sehen.

Darauf klicken, um die Beobachtung von Wetterbeobachtungen und Prognosen zu sehen.

Um die Karte zu ändern : klicken Sie auf den grünen Tasten mit einem schwarzen Kreuz Zum Vergrößern, auf den grünen Button mit einem Gedankenstrich zu verkleinern, oder auf die grünen Pfeile für benachbarte Karten.


METAR-TAF: